NZS779C EKCH-ENGM
Flight info
| Callsign | NZS779C |
|---|---|
| Flight time | 0h 58m |
| Altitude | 32000 |
| Route | VEDAR DCT SABAK DCT LUNIP |
| Aircraft | B38M/M-SDE1FGHILORVWXY/HB1 |
Departure
| Time | 2026-05-06 12:41 |
|---|---|
| Airport | Copenhagen Kastrup Airport (EKCH) |
Arrival
| Time | 2026-05-06 13:40 |
|---|---|
| Airport | Oslo-Gardermoen International Airport (ENGM) |
| Time | Latitude | Longitude | Altitude | Speed | Heading |
|---|---|---|---|---|---|
| 2026-05-06 12:05 | 55.62760 | 12.64316 | 19 ft | 0 kts | 296° |
| 2026-05-06 12:27 | 55.62758 | 12.64322 | 19 ft | 2 kts | 296° |
| 2026-05-06 12:28 | 55.62749 | 12.64351 | 20 ft | 3 kts | 309° |
| 2026-05-06 12:28 | 55.62737 | 12.64368 | 22 ft | 3 kts | 0° |
| 2026-05-06 12:28 | 55.62725 | 12.64362 | 24 ft | 3 kts | 26° |
| 2026-05-06 12:28 | 55.62707 | 12.64346 | 22 ft | 3 kts | 24° |
| 2026-05-06 12:29 | 55.62688 | 12.64332 | 22 ft | 3 kts | 22° |
| 2026-05-06 12:29 | 55.62670 | 12.64319 | 21 ft | 3 kts | 21° |
| 2026-05-06 12:29 | 55.62655 | 12.64308 | 19 ft | 1 kts | 22° |
| 2026-05-06 12:29 | 55.62642 | 12.64298 | 21 ft | 3 kts | 25° |
| 2026-05-06 12:30 | 55.62624 | 12.64282 | 22 ft | 3 kts | 32° |
| 2026-05-06 12:30 | 55.62608 | 12.64262 | 20 ft | 3 kts | 44° |
| 2026-05-06 12:30 | 55.62596 | 12.64235 | 21 ft | 3 kts | 70° |
| 2026-05-06 12:30 | 55.62595 | 12.64211 | 21 ft | 2 kts | 118° |
| 2026-05-06 12:31 | 55.62601 | 12.64193 | 21 ft | 3 kts | 122° |
| 2026-05-06 12:31 | 55.62612 | 12.64163 | 21 ft | 3 kts | 122° |
| 2026-05-06 12:31 | 55.62623 | 12.64133 | 22 ft | 3 kts | 122° |
| 2026-05-06 12:31 | 55.62631 | 12.64109 | 23 ft | 1 kts | 123° |
| 2026-05-06 12:32 | 55.62632 | 12.64108 | 20 ft | 0 kts | 123° |
| 2026-05-06 12:33 | 55.62628 | 12.64118 | 22 ft | 2 kts | 123° |
| 2026-05-06 12:34 | 55.62613 | 12.64158 | 20 ft | 5 kts | 123° |
| 2026-05-06 12:34 | 55.62588 | 12.64228 | 23 ft | 8 kts | 123° |
| 2026-05-06 12:34 | 55.62552 | 12.64325 | 21 ft | 11 kts | 123° |
| 2026-05-06 12:34 | 55.62508 | 12.64444 | 20 ft | 13 kts | 123° |
| 2026-05-06 12:35 | 55.62453 | 12.64591 | 19 ft | 15 kts | 123° |
| 2026-05-06 12:35 | 55.62391 | 12.64762 | 20 ft | 18 kts | 123° |
| 2026-05-06 12:35 | 55.62321 | 12.64949 | 20 ft | 19 kts | 123° |
| 2026-05-06 12:35 | 55.62250 | 12.65140 | 21 ft | 11 kts | 123° |
| 2026-05-06 12:36 | 55.62198 | 12.65169 | 20 ft | 10 kts | 212° |
| 2026-05-06 12:36 | 55.62134 | 12.65095 | 20 ft | 12 kts | 213° |
| 2026-05-06 12:36 | 55.62058 | 12.65008 | 21 ft | 14 kts | 213° |
| 2026-05-06 12:36 | 55.61966 | 12.64902 | 21 ft | 17 kts | 213° |
| 2026-05-06 12:37 | 55.61856 | 12.64775 | 19 ft | 20 kts | 213° |
| 2026-05-06 12:37 | 55.61735 | 12.64637 | 19 ft | 22 kts | 212° |
| 2026-05-06 12:37 | 55.61600 | 12.64481 | 21 ft | 24 kts | 213° |
| 2026-05-06 12:37 | 55.61452 | 12.64311 | 20 ft | 26 kts | 213° |
| 2026-05-06 12:38 | 55.61293 | 12.64128 | 22 ft | 28 kts | 213° |
| 2026-05-06 12:38 | 55.61121 | 12.63931 | 20 ft | 30 kts | 212° |
| 2026-05-06 12:38 | 55.60942 | 12.63725 | 21 ft | 27 kts | 214° |
| 2026-05-06 12:38 | 55.60807 | 12.63570 | 19 ft | 23 kts | 213° |
| 2026-05-06 12:39 | 55.60665 | 12.63408 | 20 ft | 25 kts | 213° |
| 2026-05-06 12:39 | 55.60571 | 12.63266 | 19 ft | 17 kts | 222° |
| 2026-05-06 12:39 | 55.60502 | 12.63205 | 19 ft | 10 kts | 163° |
| 2026-05-06 12:39 | 55.60444 | 12.63303 | 19 ft | 13 kts | 130° |
| 2026-05-06 12:40 | 55.60394 | 12.63416 | 23 ft | 8 kts | 114° |
| 2026-05-06 12:40 | 55.60402 | 12.63461 | 23 ft | 3 kts | 33° |
| 2026-05-06 12:40 | 55.60429 | 12.63493 | 20 ft | 7 kts | 34° |
| 2026-05-06 12:40 | 55.60475 | 12.63560 | 21 ft | 12 kts | 40° |
| 2026-05-06 12:41 | 55.60714 | 12.63931 | 21 ft | 86 kts | 41° |
| 2026-05-06 12:41 | 55.61348 | 12.64914 | 22 ft | 153 kts | 41° |
| 2026-05-06 12:41 | 55.62238 | 12.66287 | 298 ft | 186 kts | 43° |
| 2026-05-06 12:41 | 55.63297 | 12.67806 | 1129 ft | 201 kts | 42° |
| 2026-05-06 12:42 | 55.64389 | 12.69366 | 2134 ft | 203 kts | 42° |
| 2026-05-06 12:42 | 55.65564 | 12.70830 | 3034 ft | 209 kts | 30° |
| 2026-05-06 12:42 | 55.66985 | 12.71598 | 3871 ft | 227 kts | 11° |
| 2026-05-06 12:42 | 55.68674 | 12.71433 | 4302 ft | 263 kts | 343° |
| 2026-05-06 12:43 | 55.70357 | 12.70040 | 5298 ft | 265 kts | 341° |
| 2026-05-06 12:43 | 55.72149 | 12.69575 | 6450 ft | 261 kts | 2° |
| 2026-05-06 12:43 | 55.73982 | 12.69459 | 7418 ft | 267 kts | 358° |
| 2026-05-06 12:43 | 55.75844 | 12.69264 | 8331 ft | 274 kts | 353° |
| 2026-05-06 12:44 | 55.77697 | 12.68320 | 9293 ft | 279 kts | 334° |
| 2026-05-06 12:44 | 55.78875 | 12.67363 | 9918 ft | 283 kts | 335° |
| 2026-05-06 12:44 | 55.81376 | 12.65462 | 10781 ft | 303 kts | 335° |
| 2026-05-06 12:44 | 55.82681 | 12.64491 | 11184 ft | 312 kts | 335° |
| 2026-05-06 12:45 | 55.85402 | 12.62491 | 12069 ft | 326 kts | 335° |
| 2026-05-06 12:45 | 55.87520 | 12.60945 | 12963 ft | 330 kts | 336° |
| 2026-05-06 12:45 | 55.91815 | 12.57818 | 14570 ft | 340 kts | 335° |
| 2026-05-06 12:46 | 55.93299 | 12.56738 | 15105 ft | 343 kts | 335° |
| 2026-05-06 12:46 | 55.95521 | 12.55118 | 15898 ft | 347 kts | 335° |
| 2026-05-06 12:46 | 55.97743 | 12.53495 | 16666 ft | 351 kts | 335° |
| 2026-05-06 12:46 | 56.00017 | 12.51832 | 17462 ft | 354 kts | 334° |
| 2026-05-06 12:47 | 56.02319 | 12.50147 | 18191 ft | 359 kts | 334° |
| 2026-05-06 12:47 | 56.04643 | 12.48443 | 18837 ft | 363 kts | 334° |
| 2026-05-06 12:47 | 56.06997 | 12.46715 | 19487 ft | 367 kts | 334° |
| 2026-05-06 12:47 | 56.09367 | 12.44973 | 20116 ft | 370 kts | 333° |
| 2026-05-06 12:48 | 56.11751 | 12.43219 | 20732 ft | 374 kts | 333° |
| 2026-05-06 12:48 | 56.14178 | 12.41431 | 21348 ft | 377 kts | 333° |
| 2026-05-06 12:48 | 56.16617 | 12.39631 | 21953 ft | 381 kts | 333° |
| 2026-05-06 12:48 | 56.19054 | 12.37831 | 22560 ft | 384 kts | 333° |
| 2026-05-06 12:49 | 56.21534 | 12.35995 | 23137 ft | 388 kts | 332° |
| 2026-05-06 12:49 | 56.24051 | 12.34130 | 23702 ft | 392 kts | 332° |
| 2026-05-06 12:49 | 56.26593 | 12.32245 | 24141 ft | 396 kts | 332° |
| 2026-05-06 12:49 | 56.29151 | 12.30344 | 24610 ft | 400 kts | 332° |
| 2026-05-06 12:50 | 56.31738 | 12.28419 | 25057 ft | 403 kts | 332° |
| 2026-05-06 12:50 | 56.34338 | 12.26481 | 25495 ft | 407 kts | 332° |
| 2026-05-06 12:50 | 56.36972 | 12.24515 | 25934 ft | 411 kts | 332° |
| 2026-05-06 12:50 | 56.39591 | 12.22557 | 26362 ft | 415 kts | 332° |
| 2026-05-06 12:51 | 56.42269 | 12.20552 | 26803 ft | 418 kts | 332° |
| 2026-05-06 12:51 | 56.44972 | 12.18525 | 27225 ft | 422 kts | 332° |
| 2026-05-06 12:51 | 56.47691 | 12.16482 | 27697 ft | 423 kts | 332° |
| 2026-05-06 12:51 | 56.50420 | 12.14430 | 28147 ft | 426 kts | 332° |
| 2026-05-06 12:52 | 56.53211 | 12.12483 | 28540 ft | 435 kts | 339° |
| 2026-05-06 12:52 | 56.56186 | 12.11569 | 29070 ft | 440 kts | 346° |
| 2026-05-06 12:52 | 56.59218 | 12.10697 | 29374 ft | 444 kts | 345° |
| 2026-05-06 12:52 | 56.62286 | 12.09814 | 29779 ft | 447 kts | 345° |
| 2026-05-06 12:53 | 56.65375 | 12.08940 | 30129 ft | 450 kts | 345° |
| 2026-05-06 12:53 | 56.68480 | 12.08065 | 30460 ft | 452 kts | 346° |
| 2026-05-06 12:53 | 56.71605 | 12.07184 | 30801 ft | 454 kts | 346° |
| 2026-05-06 12:53 | 56.74703 | 12.06309 | 31156 ft | 456 kts | 346° |
| 2026-05-06 12:54 | 56.77837 | 12.05423 | 31594 ft | 455 kts | 346° |
| 2026-05-06 12:54 | 56.80990 | 12.04529 | 31944 ft | 457 kts | 345° |
| 2026-05-06 12:54 | 56.84112 | 12.03643 | 31962 ft | 456 kts | 345° |
| 2026-05-06 12:55 | 56.90335 | 12.01873 | 31947 ft | 454 kts | 345° |
| 2026-05-06 12:55 | 56.96599 | 12.00084 | 31947 ft | 454 kts | 345° |
| 2026-05-06 12:56 | 57.02813 | 11.98304 | 31947 ft | 454 kts | 345° |
| 2026-05-06 12:56 | 57.09060 | 11.96508 | 31970 ft | 454 kts | 345° |
| 2026-05-06 12:57 | 57.15318 | 11.94703 | 31946 ft | 455 kts | 345° |
| 2026-05-06 12:57 | 57.21555 | 11.92899 | 31977 ft | 455 kts | 345° |
| 2026-05-06 12:58 | 57.27807 | 11.91083 | 31955 ft | 453 kts | 345° |
| 2026-05-06 12:58 | 57.33993 | 11.89280 | 31952 ft | 453 kts | 345° |
| 2026-05-06 12:59 | 57.40216 | 11.87460 | 31959 ft | 452 kts | 344° |
| 2026-05-06 12:59 | 57.46443 | 11.85633 | 31954 ft | 452 kts | 344° |
| 2026-05-06 13:00 | 57.52659 | 11.83803 | 31952 ft | 452 kts | 344° |
| 2026-05-06 13:00 | 57.58873 | 11.81967 | 31954 ft | 453 kts | 343° |
| 2026-05-06 13:01 | 57.65059 | 11.80134 | 31991 ft | 453 kts | 344° |
| 2026-05-06 13:01 | 57.71285 | 11.78281 | 31966 ft | 453 kts | 343° |
| 2026-05-06 13:02 | 57.77521 | 11.76420 | 31964 ft | 453 kts | 343° |
| 2026-05-06 13:02 | 57.83734 | 11.74559 | 31966 ft | 453 kts | 343° |
| 2026-05-06 13:03 | 57.89957 | 11.72688 | 31965 ft | 453 kts | 343° |
| 2026-05-06 13:03 | 57.96153 | 11.70818 | 31991 ft | 453 kts | 342° |
| 2026-05-06 13:04 | 58.02397 | 11.68928 | 31953 ft | 452 kts | 342° |
| 2026-05-06 13:04 | 58.08580 | 11.67051 | 31950 ft | 452 kts | 342° |
| 2026-05-06 13:05 | 58.14805 | 11.65154 | 31965 ft | 452 kts | 342° |
| 2026-05-06 13:05 | 58.20972 | 11.63216 | 31958 ft | 452 kts | 342° |
| 2026-05-06 13:05 | 58.24031 | 11.62248 | 31979 ft | 440 kts | 342° |
| 2026-05-06 13:06 | 58.27041 | 11.61291 | 31968 ft | 434 kts | 342° |
| 2026-05-06 13:06 | 58.32932 | 11.59417 | 31957 ft | 432 kts | 342° |
| 2026-05-06 13:07 | 58.38865 | 11.57523 | 31969 ft | 432 kts | 342° |
| 2026-05-06 13:07 | 58.44795 | 11.55625 | 31956 ft | 431 kts | 342° |
| 2026-05-06 13:08 | 58.50675 | 11.53736 | 31967 ft | 431 kts | 342° |
| 2026-05-06 13:08 | 58.56579 | 11.51832 | 31977 ft | 430 kts | 341° |
| 2026-05-06 13:09 | 58.62489 | 11.49921 | 31968 ft | 430 kts | 341° |
| 2026-05-06 13:09 | 58.68395 | 11.48004 | 31960 ft | 431 kts | 341° |
| 2026-05-06 13:09 | 58.71327 | 11.47051 | 31619 ft | 423 kts | 341° |
| 2026-05-06 13:10 | 58.74224 | 11.46105 | 30857 ft | 420 kts | 341° |
| 2026-05-06 13:10 | 58.77070 | 11.45175 | 30044 ft | 419 kts | 340° |
| 2026-05-06 13:10 | 58.79932 | 11.44241 | 29112 ft | 418 kts | 341° |
| 2026-05-06 13:10 | 58.82797 | 11.43305 | 28279 ft | 415 kts | 341° |
| 2026-05-06 13:11 | 58.85640 | 11.42371 | 27411 ft | 413 kts | 341° |
| 2026-05-06 13:11 | 58.88463 | 11.41443 | 26569 ft | 410 kts | 341° |
| 2026-05-06 13:11 | 58.91262 | 11.40521 | 25766 ft | 407 kts | 342° |
| 2026-05-06 13:11 | 58.94040 | 11.39605 | 24985 ft | 403 kts | 342° |
| 2026-05-06 13:12 | 58.96795 | 11.38696 | 24221 ft | 400 kts | 342° |
| 2026-05-06 13:12 | 58.99529 | 11.37791 | 23485 ft | 396 kts | 342° |
| 2026-05-06 13:12 | 59.02199 | 11.36907 | 22637 ft | 391 kts | 342° |
| 2026-05-06 13:12 | 59.04857 | 11.36025 | 21822 ft | 387 kts | 343° |
| 2026-05-06 13:13 | 59.07501 | 11.35144 | 21026 ft | 383 kts | 343° |
| 2026-05-06 13:13 | 59.10124 | 11.34274 | 20257 ft | 378 kts | 343° |
| 2026-05-06 13:13 | 59.12704 | 11.33412 | 19555 ft | 373 kts | 343° |
| 2026-05-06 13:13 | 59.15210 | 11.32576 | 18852 ft | 368 kts | 343° |
| 2026-05-06 13:14 | 59.17717 | 11.31741 | 18242 ft | 361 kts | 344° |
| 2026-05-06 13:14 | 59.20201 | 11.31193 | 17513 ft | 357 kts | 348° |
| 2026-05-06 13:14 | 59.22663 | 11.30711 | 16755 ft | 352 kts | 348° |
| 2026-05-06 13:14 | 59.25082 | 11.30218 | 16046 ft | 347 kts | 348° |
| 2026-05-06 13:15 | 59.27470 | 11.29720 | 15398 ft | 341 kts | 348° |
| 2026-05-06 13:15 | 59.29765 | 11.29238 | 14927 ft | 331 kts | 348° |
| 2026-05-06 13:15 | 59.32036 | 11.28757 | 14585 ft | 318 kts | 348° |
| 2026-05-06 13:15 | 59.34169 | 11.28305 | 14268 ft | 306 kts | 348° |
| 2026-05-06 13:16 | 59.36245 | 11.27864 | 13970 ft | 294 kts | 348° |
| 2026-05-06 13:16 | 59.38251 | 11.27438 | 13646 ft | 285 kts | 348° |
| 2026-05-06 13:16 | 59.40225 | 11.27017 | 13333 ft | 289 kts | 348° |
| 2026-05-06 13:16 | 59.42248 | 11.26586 | 13013 ft | 295 kts | 348° |
| 2026-05-06 13:17 | 59.44309 | 11.26147 | 12701 ft | 298 kts | 348° |
| 2026-05-06 13:17 | 59.46368 | 11.25671 | 12351 ft | 297 kts | 348° |
| 2026-05-06 13:17 | 59.48421 | 11.25182 | 12024 ft | 297 kts | 348° |
| 2026-05-06 13:17 | 59.50444 | 11.24700 | 11938 ft | 296 kts | 348° |
| 2026-05-06 13:18 | 59.52489 | 11.24215 | 11948 ft | 294 kts | 348° |
| 2026-05-06 13:18 | 59.54467 | 11.23746 | 11952 ft | 281 kts | 348° |
| 2026-05-06 13:18 | 59.56361 | 11.23297 | 11959 ft | 267 kts | 347° |
| 2026-05-06 13:18 | 59.58190 | 11.22862 | 11958 ft | 263 kts | 347° |
| 2026-05-06 13:19 | 59.60012 | 11.22445 | 11951 ft | 263 kts | 351° |
| 2026-05-06 13:19 | 59.61813 | 11.22931 | 11806 ft | 269 kts | 18° |
| 2026-05-06 13:19 | 59.63333 | 11.25061 | 11567 ft | 271 kts | 48° |
| 2026-05-06 13:19 | 59.64233 | 11.28283 | 11318 ft | 268 kts | 70° |
| 2026-05-06 13:20 | 59.64856 | 11.31736 | 11086 ft | 268 kts | 70° |
| 2026-05-06 13:20 | 59.65497 | 11.35251 | 10951 ft | 273 kts | 70° |
| 2026-05-06 13:20 | 59.66138 | 11.38793 | 10617 ft | 276 kts | 70° |
| 2026-05-06 13:20 | 59.67067 | 11.42161 | 10013 ft | 285 kts | 44° |
| 2026-05-06 13:21 | 59.68739 | 11.44152 | 9422 ft | 288 kts | 11° |
| 2026-05-06 13:21 | 59.70706 | 11.44069 | 8911 ft | 282 kts | 337° |
| 2026-05-06 13:21 | 59.72317 | 11.42038 | 8531 ft | 274 kts | 313° |
| 2026-05-06 13:21 | 59.73784 | 11.39596 | 8148 ft | 276 kts | 322° |
| 2026-05-06 13:22 | 59.75557 | 11.38151 | 7828 ft | 279 kts | 349° |
| 2026-05-06 13:22 | 59.77490 | 11.38404 | 7490 ft | 283 kts | 15° |
| 2026-05-06 13:22 | 59.79274 | 11.39900 | 7153 ft | 283 kts | 24° |
| 2026-05-06 13:22 | 59.81041 | 11.41634 | 6845 ft | 282 kts | 25° |
| 2026-05-06 13:23 | 59.82796 | 11.43370 | 6558 ft | 280 kts | 25° |
| 2026-05-06 13:23 | 59.84538 | 11.45088 | 6234 ft | 279 kts | 25° |
| 2026-05-06 13:23 | 59.86259 | 11.46795 | 6010 ft | 276 kts | 25° |
| 2026-05-06 13:23 | 59.87988 | 11.48505 | 5984 ft | 277 kts | 25° |
| 2026-05-06 13:24 | 59.89698 | 11.50185 | 6004 ft | 277 kts | 25° |
| 2026-05-06 13:24 | 59.91428 | 11.51906 | 5991 ft | 278 kts | 25° |
| 2026-05-06 13:24 | 59.93165 | 11.53631 | 5997 ft | 278 kts | 25° |
| 2026-05-06 13:24 | 59.94894 | 11.55335 | 5991 ft | 277 kts | 25° |
| 2026-05-06 13:25 | 59.96619 | 11.57055 | 6003 ft | 277 kts | 25° |
| 2026-05-06 13:25 | 59.98336 | 11.58783 | 5996 ft | 275 kts | 25° |
| 2026-05-06 13:25 | 60.00030 | 11.60473 | 5987 ft | 274 kts | 25° |
| 2026-05-06 13:25 | 60.01728 | 11.62186 | 5988 ft | 274 kts | 25° |
| 2026-05-06 13:26 | 60.03432 | 11.63924 | 5985 ft | 275 kts | 25° |
| 2026-05-06 13:26 | 60.05142 | 11.65643 | 5995 ft | 273 kts | 25° |
| 2026-05-06 13:26 | 60.06814 | 11.67332 | 5986 ft | 265 kts | 24° |
| 2026-05-06 13:26 | 60.08518 | 11.68392 | 5943 ft | 256 kts | 0° |
| 2026-05-06 13:27 | 60.10218 | 11.67903 | 5834 ft | 243 kts | 341° |
| 2026-05-06 13:27 | 60.11827 | 11.66836 | 5487 ft | 245 kts | 339° |
| 2026-05-06 13:27 | 60.13436 | 11.65751 | 5235 ft | 242 kts | 339° |
| 2026-05-06 13:27 | 60.15029 | 11.64676 | 5021 ft | 240 kts | 339° |
| 2026-05-06 13:28 | 60.16592 | 11.63603 | 4991 ft | 231 kts | 338° |
| 2026-05-06 13:28 | 60.18066 | 11.62512 | 5028 ft | 223 kts | 337° |
| 2026-05-06 13:28 | 60.19511 | 11.61439 | 5013 ft | 220 kts | 338° |
| 2026-05-06 13:28 | 60.20946 | 11.60355 | 4980 ft | 220 kts | 337° |
| 2026-05-06 13:29 | 60.22369 | 11.59198 | 4981 ft | 220 kts | 334° |
| 2026-05-06 13:29 | 60.23755 | 11.57906 | 5005 ft | 219 kts | 332° |
| 2026-05-06 13:29 | 60.25110 | 11.56604 | 4997 ft | 216 kts | 331° |
| 2026-05-06 13:29 | 60.26422 | 11.55347 | 4953 ft | 203 kts | 331° |
| 2026-05-06 13:30 | 60.27678 | 11.54144 | 4946 ft | 199 kts | 332° |
| 2026-05-06 13:30 | 60.28926 | 11.52952 | 5017 ft | 199 kts | 331° |
| 2026-05-06 13:30 | 60.30180 | 11.51749 | 5022 ft | 199 kts | 332° |
| 2026-05-06 13:30 | 60.31437 | 11.50549 | 5032 ft | 199 kts | 332° |
| 2026-05-06 13:31 | 60.32672 | 11.49366 | 5008 ft | 199 kts | 331° |
| 2026-05-06 13:31 | 60.33923 | 11.48165 | 4965 ft | 199 kts | 332° |
| 2026-05-06 13:31 | 60.35175 | 11.46968 | 5007 ft | 197 kts | 331° |
| 2026-05-06 13:31 | 60.36412 | 11.45780 | 5003 ft | 196 kts | 331° |
| 2026-05-06 13:32 | 60.37648 | 11.44594 | 4982 ft | 197 kts | 332° |
| 2026-05-06 13:32 | 60.38867 | 11.43417 | 4964 ft | 196 kts | 332° |
| 2026-05-06 13:32 | 60.40104 | 11.42231 | 4967 ft | 197 kts | 332° |
| 2026-05-06 13:32 | 60.41201 | 11.40614 | 4950 ft | 194 kts | 304° |
| 2026-05-06 13:33 | 60.41676 | 11.38113 | 4982 ft | 192 kts | 275° |
| 2026-05-06 13:33 | 60.41624 | 11.35440 | 5016 ft | 191 kts | 264° |
| 2026-05-06 13:33 | 60.41475 | 11.32749 | 4606 ft | 193 kts | 263° |
| 2026-05-06 13:33 | 60.41307 | 11.30069 | 4288 ft | 190 kts | 263° |
| 2026-05-06 13:34 | 60.41128 | 11.27419 | 4014 ft | 187 kts | 263° |
| 2026-05-06 13:34 | 60.40946 | 11.24808 | 3954 ft | 188 kts | 262° |
| 2026-05-06 13:34 | 60.40689 | 11.22293 | 3958 ft | 180 kts | 246° |
| 2026-05-06 13:34 | 60.39885 | 11.20457 | 3799 ft | 173 kts | 212° |
| 2026-05-06 13:35 | 60.38799 | 11.19456 | 3606 ft | 170 kts | 205° |
| 2026-05-06 13:35 | 60.37686 | 11.18609 | 3501 ft | 171 kts | 203° |
| 2026-05-06 13:35 | 60.36548 | 11.17829 | 3442 ft | 174 kts | 201° |
| 2026-05-06 13:35 | 60.35394 | 11.17112 | 3477 ft | 174 kts | 201° |
| 2026-05-06 13:36 | 60.34622 | 11.16648 | 3338 ft | 176 kts | 200° |
| 2026-05-06 13:36 | 60.33451 | 11.15960 | 3139 ft | 174 kts | 200° |
| 2026-05-06 13:36 | 60.31931 | 11.15083 | 2863 ft | 167 kts | 199° |
| 2026-05-06 13:36 | 60.31183 | 11.14668 | 2709 ft | 163 kts | 198° |
| 2026-05-06 13:37 | 60.30148 | 11.14077 | 2500 ft | 146 kts | 200° |
| 2026-05-06 13:37 | 60.29225 | 11.13553 | 2350 ft | 135 kts | 198° |
| 2026-05-06 13:37 | 60.28323 | 11.13085 | 2143 ft | 132 kts | 201° |
| 2026-05-06 13:37 | 60.27447 | 11.12533 | 1955 ft | 131 kts | 200° |
| 2026-05-06 13:38 | 60.26575 | 11.12012 | 1763 ft | 131 kts | 200° |
| 2026-05-06 13:38 | 60.25699 | 11.11499 | 1569 ft | 132 kts | 198° |
| 2026-05-06 13:38 | 60.24814 | 11.10992 | 1397 ft | 132 kts | 197° |
| 2026-05-06 13:38 | 60.23947 | 11.10507 | 1227 ft | 130 kts | 196° |
| 2026-05-06 13:39 | 60.23081 | 11.10003 | 1058 ft | 129 kts | 196° |
| 2026-05-06 13:39 | 60.22220 | 11.09507 | 881 ft | 127 kts | 195° |
| 2026-05-06 13:39 | 60.21378 | 11.09028 | 716 ft | 124 kts | 194° |
| 2026-05-06 13:39 | 60.20634 | 11.08608 | 693 ft | 92 kts | 195° |
| 2026-05-06 13:40 | 60.20118 | 11.08315 | 689 ft | 55 kts | 197° |
| 2026-05-06 13:40 | 60.19885 | 11.08180 | 689 ft | 19 kts | 195° |
| 2026-05-06 13:40 | 60.19759 | 11.08118 | 692 ft | 17 kts | 188° |
| 2026-05-06 13:40 | 60.19655 | 11.08123 | 691 ft | 13 kts | 168° |
| 2026-05-06 13:41 | 60.19588 | 11.08200 | 692 ft | 9 kts | 125° |
| 2026-05-06 13:41 | 60.19561 | 11.08318 | 686 ft | 10 kts | 103° |
| 2026-05-06 13:41 | 60.19545 | 11.08455 | 690 ft | 8 kts | 103° |
| 2026-05-06 13:41 | 60.19552 | 11.08557 | 684 ft | 6 kts | 34° |
| 2026-05-06 13:42 | 60.19591 | 11.08573 | 690 ft | 7 kts | 11° |
| 2026-05-06 13:42 | 60.19646 | 11.08602 | 693 ft | 10 kts | 15° |
| 2026-05-06 13:42 | 60.19721 | 11.08644 | 689 ft | 12 kts | 16° |
| 2026-05-06 13:42 | 60.19813 | 11.08698 | 690 ft | 15 kts | 16° |
| 2026-05-06 13:43 | 60.19923 | 11.08759 | 689 ft | 18 kts | 15° |
| 2026-05-06 13:43 | 60.20044 | 11.08827 | 690 ft | 13 kts | 17° |
| 2026-05-06 13:43 | 60.20139 | 11.08883 | 693 ft | 15 kts | 15° |
| 2026-05-06 13:43 | 60.20193 | 11.08964 | 690 ft | 10 kts | 96° |
| 2026-05-06 13:44 | 60.20173 | 11.09114 | 691 ft | 13 kts | 105° |
| 2026-05-06 13:44 | 60.20145 | 11.09303 | 691 ft | 15 kts | 107° |
| 2026-05-06 13:44 | 60.20114 | 11.09526 | 691 ft | 18 kts | 105° |
| 2026-05-06 13:44 | 60.20078 | 11.09778 | 689 ft | 16 kts | 106° |
| 2026-05-06 13:45 | 60.20054 | 11.09954 | 685 ft | 14 kts | 105° |
| 2026-05-06 13:45 | 60.19989 | 11.10402 | 691 ft | 19 kts | 106° |
| 2026-05-06 13:45 | 60.19957 | 11.10635 | 693 ft | 9 kts | 105° |
| 2026-05-06 13:46 | 60.19917 | 11.10729 | 693 ft | 10 kts | 175° |
| 2026-05-06 13:46 | 60.19839 | 11.10690 | 693 ft | 13 kts | 196° |
| 2026-05-06 13:46 | 60.19744 | 11.10636 | 693 ft | 16 kts | 195° |
| 2026-05-06 13:46 | 60.19651 | 11.10584 | 692 ft | 10 kts | 195° |
| 2026-05-06 13:47 | 60.19585 | 11.10546 | 692 ft | 7 kts | 195° |
| 2026-05-06 13:47 | 60.19536 | 11.10519 | 692 ft | 5 kts | 192° |
| 2026-05-06 13:47 | 60.19527 | 11.10528 | 692 ft | 2 kts | 139° |
| 2026-05-06 13:47 | 60.19517 | 11.10567 | 691 ft | 5 kts | 109° |